Time;durP1;ratioP1;P1;durP2;ratioP2;P2;SDS_P1;SDS_P2;PMS_P1;PMS_P2;Temp;Humidity;BMP_temperature;BMP_pressure;BME280_temperature;BME280_humidity;BME280_pressure;Samples;Min_cycle;Max_cycle;Signal;HPM_P1;HPM_P2
2022/03/03 00:01:00;;;;;;;;;;;;;;;2.65;42.71;100093.97;4465718;32;33954;-77
2022/03/03 00:03:28;;;;;;;;;;;;;;;2.60;42.74;100085.47;4467913;32;36200;-77
2022/03/03 00:05:55;;;;;;;;;;;;;;;2.17;44.39;100094.09;4447911;32;34156;-77
2022/03/03 00:08:23;;;;;;;;;;;;;;;2.65;42.59;100092.19;4462741;32;31832;-77
2022/03/03 00:10:56;;;;;;;;;;;;;;;2.78;41.88;100094.00;4440094;32;32084;-77
2022/03/03 00:13:24;;;;;;;;;;;;;;;2.77;41.81;100091.47;4441195;32;34545;-77
2022/03/03 00:15:51;;;;;;;;;;;;;;;2.67;41.52;100090.31;4448312;32;34769;-77
2022/03/03 00:18:19;;;;;;;;;;;;;;;2.77;41.45;100091.47;4455284;32;33500;-77
2022/03/03 00:20:47;;;;;;;;;;;;;;;2.67;41.53;100092.09;4448367;32;34191;-77
2022/03/03 00:23:14;;;;;;;;;;;;;;;2.59;41.77;100089.91;4455917;32;35054;-77
2022/03/03 00:25:42;;;;;;;;;;;;;;;2.46;42.32;100094.16;4455217;32;35440;-77
2022/03/03 00:28:09;;;;;;;;;;;;;;;2.65;41.65;100089.56;4455399;32;33226;-77
2022/03/03 00:30:37;;;;;;;;;;;;;;;2.71;41.23;100077.84;4452130;32;32809;-77
2022/03/03 00:33:05;;;;;;;;;;;;;;;2.68;41.46;100078.88;4448205;32;34987;-77
2022/03/03 00:35:32;;;;;;;;;;;;;;;2.39;42.16;100094.59;4456030;32;35092;-78
2022/03/03 00:38:00;;;;;;;;;;;;;;;2.54;41.96;100081.44;4455195;32;33632;-77
2022/03/03 00:40:28;;;;;;;;;;;;;;;2.61;41.43;100087.22;4458125;32;34040;-77
2022/03/03 00:42:55;;;;;;;;;;;;;;;2.24;42.86;100093.66;4455177;32;36035;-77
2022/03/03 00:45:23;;;;;;;;;;;;;;;2.10;42.82;100096.22;4461841;32;34250;-77
2022/03/03 00:47:51;;;;;;;;;;;;;;;1.83;44.24;100097.72;4454999;32;32864;-77
2022/03/03 00:50:18;;;;;;;;;;;;;;;2.13;42.95;100088.16;4466164;32;34977;-78
2022/03/03 00:52:46;;;;;;;;;;;;;;;2.18;42.69;100083.50;4435565;32;34341;-78
2022/03/03 00:55:14;;;;;;;;;;;;;;;2.30;42.44;100076.72;4457912;32;34454;-78
2022/03/03 00:57:41;;;;;;;;;;;;;;;2.00;43.22;100073.19;4428970;32;916397;-76
2022/03/03 01:00:09;;;;;;;;;;;;;;;2.07;43.25;100070.13;4458315;32;34653;-76
2022/03/03 01:02:37;;;;;;;;;;;;;;;1.89;43.52;100081.63;4454668;32;35294;-76
2022/03/03 01:05:05;;;;;;;;;;;;;;;2.19;43.05;100072.09;4450054;32;33881;-76
2022/03/03 01:07:33;;;;;;;;;;;;;;;2.35;42.51;100070.28;4454945;32;33481;-76
2022/03/03 01:10:01;;;;;;;;;;;;;;;2.32;42.62;100078.34;4442713;32;34263;-77
2022/03/03 01:12:28;;;;;;;;;;;;;;;1.50;45.13;100064.59;4460926;32;34966;-77
2022/03/03 01:14:55;;;;;;;;;;;;;;;2.14;43.37;100065.38;4455979;32;34259;-77
2022/03/03 01:17:23;;;;;;;;;;;;;;;2.05;43.19;100066.75;4469170;32;33425;-77
2022/03/03 01:19:51;;;;;;;;;;;;;;;2.16;43.14;100063.53;4454553;32;33284;-78
2022/03/03 01:22:18;;;;;;;;;;;;;;;2.24;42.77;100051.66;4454538;32;35612;-77
2022/03/03 01:24:46;;;;;;;;;;;;;;;2.05;43.64;100047.56;4462792;32;32839;-78
2022/03/03 01:27:13;;;;;;;;;;;;;;;2.44;42.46;100040.06;4455040;32;33371;-77
2022/03/03 01:29:41;;;;;;;;;;;;;;;2.21;43.12;100043.13;4455341;32;34374;-77
2022/03/03 01:32:09;;;;;;;;;;;;;;;2.06;43.96;100042.19;4452789;32;35288;-76
2022/03/03 01:34:37;;;;;;;;;;;;;;;2.15;43.69;100035.62;4454965;32;33833;-77
2022/03/03 01:37:04;;;;;;;;;;;;;;;2.08;43.96;100042.12;4454438;32;33084;-77
2022/03/03 01:39:32;;;;;;;;;;;;;;;2.15;43.93;100039.06;4454443;32;33923;-77
2022/03/03 01:41:59;;;;;;;;;;;;;;;2.05;43.92;100042.31;4455643;32;35654;-77
2022/03/03 01:44:27;;;;;;;;;;;;;;;2.20;43.38;100038.81;4443046;32;32947;-76
2022/03/03 01:46:56;;;;;;;;;;;;;;;2.28;42.94;100037.47;4455709;32;33556;-77
2022/03/03 01:49:24;;;;;;;;;;;;;;;2.24;42.94;100033.31;4456748;32;34105;-77
2022/03/03 01:51:51;;;;;;;;;;;;;;;2.21;42.86;100030.00;4454534;32;36158;-77
2022/03/03 01:54:19;;;;;;;;;;;;;;;2.15;43.13;100025.94;4452490;32;34870;-77
2022/03/03 01:56:47;;;;;;;;;;;;;;;2.14;43.38;100019.00;4456125;32;32420;-77
2022/03/03 01:59:15;;;;;;;;;;;;;;;2.09;43.44;100020.19;4469442;32;34550;-77
2022/03/03 02:01:43;;;;;;;;;;;;;;;2.15;43.41;100019.87;4453617;32;35699;-77
2022/03/03 02:04:11;;;;;;;;;;;;;;;2.11;43.79;100016.56;4455834;32;32521;-76
2022/03/03 02:06:38;;;;;;;;;;;;;;;2.06;43.65;100021.22;4460635;32;33452;-77
2022/03/03 02:09:05;;;;;;;;;;;;;;;2.10;43.47;100020.13;4443033;32;32503;-76
2022/03/03 02:11:33;;;;;;;;;;;;;;;2.12;43.51;100020.88;4462254;32;35457;-76
2022/03/03 02:14:04;;;;;;;;;;;;;;;2.02;43.94;100014.47;4468907;32;34641;-76
2022/03/03 02:16:31;;;;;;;;;;;;;;;1.94;44.44;100010.56;4467915;32;31940;-77
2022/03/03 02:18:59;;;;;;;;;;;;;;;1.84;45.12;100004.13;4443932;32;34214;-76
2022/03/03 02:21:27;;;;;;;;;;;;;;;1.97;44.44;100003.37;4452640;32;33222;-76
2022/03/03 02:23:54;;;;;;;;;;;;;;;1.97;44.41;100002.53;4440439;32;34208;-77
2022/03/03 02:26:23;;;;;;;;;;;;;;;1.87;44.59;100003.97;4454507;32;34131;-76
2022/03/03 02:28:51;;;;;;;;;;;;;;;1.93;44.46;99999.22;4466957;32;34369;-76
2022/03/03 02:31:19;;;;;;;;;;;;;;;1.93;44.48;99993.13;4445276;32;33127;-77
2022/03/03 02:33:47;;;;;;;;;;;;;;;1.88;44.75;99997.78;4441948;32;34502;-77
2022/03/03 02:36:14;;;;;;;;;;;;;;;1.76;44.91;99988.81;4450893;32;32319;-77
2022/03/03 02:38:42;;;;;;;;;;;;;;;1.74;45.29;99984.59;4455912;32;34936;-76
2022/03/03 02:41:10;;;;;;;;;;;;;;;1.83;44.81;99997.19;4456741;32;35031;-77
2022/03/03 02:43:37;;;;;;;;;;;;;;;1.79;44.75;99988.66;4455612;32;34731;-77
2022/03/03 02:46:05;;;;;;;;;;;;;;;1.80;44.72;99995.59;4442995;32;31685;-76
2022/03/03 02:48:33;;;;;;;;;;;;;;;1.82;44.57;99996.38;4443134;32;34193;-76
2022/03/03 02:51:01;;;;;;;;;;;;;;;1.60;45.20;99998.47;4463135;32;34460;-76
2022/03/03 02:53:28;;;;;;;;;;;;;;;1.38;45.92;99994.47;4455931;32;35371;-76
2022/03/03 02:55:56;;;;;;;;;;;;;;;1.59;45.51;99993.31;4456351;32;33698;-77
2022/03/03 02:58:24;;;;;;;;;;;;;;;1.49;45.93;99990.34;4456029;32;33811;-76
2022/03/03 03:00:51;;;;;;;;;;;;;;;1.52;46.02;99987.53;4449141;32;34531;-77
2022/03/03 03:03:20;;;;;;;;;;;;;;;1.56;45.71;99980.34;4456845;32;34816;-77
2022/03/03 03:05:48;;;;;;;;;;;;;;;1.62;45.33;99983.47;4465467;32;32918;-76
2022/03/03 03:08:16;;;;;;;;;;;;;;;1.54;45.58;99972.59;4455362;32;34124;-76
2022/03/03 03:10:43;;;;;;;;;;;;;;;1.40;46.25;99974.28;4465726;32;36203;-77
2022/03/03 03:13:12;;;;;;;;;;;;;;;1.09;47.05;99985.53;4456585;32;34793;-77
2022/03/03 03:15:41;;;;;;;;;;;;;;;1.23;46.77;99985.66;4451479;32;33863;-77
2022/03/03 03:18:13;;;;;;;;;;;;;;;1.42;46.09;99986.34;4444496;32;34546;-77
2022/03/03 03:20:41;;;;;;;;;;;;;;;1.16;46.56;99986.06;4442229;32;34489;-77
2022/03/03 03:23:10;;;;;;;;;;;;;;;1.30;46.44;99983.53;4452121;32;34635;-76
2022/03/03 03:25:39;;;;;;;;;;;;;;;1.31;46.15;99982.62;4461174;32;33355;-77
2022/03/03 03:28:07;;;;;;;;;;;;;;;1.03;47.30;99988.47;4455848;32;33819;-76
2022/03/03 03:30:35;;;;;;;;;;;;;;;1.30;46.35;99992.25;4446443;32;33885;-77
2022/03/03 03:33:02;;;;;;;;;;;;;;;1.23;46.15;99988.25;4455048;32;35055;-77
2022/03/03 03:35:30;;;;;;;;;;;;;;;1.15;46.57;99984.38;4429290;32;32373;-77
2022/03/03 03:37:58;;;;;;;;;;;;;;;1.08;46.90;99990.84;4441171;32;33383;-77
2022/03/03 03:40:25;;;;;;;;;;;;;;;0.85;47.77;99986.81;4444544;32;35416;-76
2022/03/03 03:42:53;;;;;;;;;;;;;;;1.07;47.39;99987.41;4442919;32;34324;-77
2022/03/03 03:45:21;;;;;;;;;;;;;;;1.15;47.09;99992.22;4452160;32;33387;-77
2022/03/03 03:47:48;;;;;;;;;;;;;;;1.06;47.22;99982.25;4442625;32;34506;-77
2022/03/03 03:50:16;;;;;;;;;;;;;;;0.87;47.66;99986.75;4456285;32;34014;-77
2022/03/03 03:52:44;;;;;;;;;;;;;;;1.06;47.08;99990.94;4455206;32;32959;-77
2022/03/03 03:55:11;;;;;;;;;;;;;;;1.09;46.80;99990.78;4459252;32;33395;-77
2022/03/03 03:57:39;;;;;;;;;;;;;;;0.95;47.11;99993.25;4451845;32;34030;-77
2022/03/03 04:00:08;;;;;;;;;;;;;;;1.12;46.70;99990.62;4459889;32;35248;-77
2022/03/03 04:02:39;;;;;;;;;;;;;;;0.63;48.29;99999.31;4442658;32;34982;-77
2022/03/03 04:05:07;;;;;;;;;;;;;;;0.69;48.25;99999.00;4465950;32;33261;-77
2022/03/03 04:07:34;;;;;;;;;;;;;;;0.80;48.01;99990.59;4446333;32;32451;-77
2022/03/03 04:10:02;;;;;;;;;;;;;;;0.78;47.98;99990.66;4427051;32;34604;-77
2022/03/03 04:12:30;;;;;;;;;;;;;;;0.85;48.03;99986.00;4452822;32;34746;-77
2022/03/03 04:14:57;;;;;;;;;;;;;;;0.69;48.29;99991.13;4463479;32;33462;-77
2022/03/03 04:17:26;;;;;;;;;;;;;;;0.73;48.39;99979.59;4455325;32;33780;-77
2022/03/03 04:19:54;;;;;;;;;;;;;;;0.70;48.76;99974.53;4450026;32;35250;-77
2022/03/03 04:22:21;;;;;;;;;;;;;;;0.65;49.04;99981.75;4455298;32;34516;-77
2022/03/03 04:24:49;;;;;;;;;;;;;;;0.73;48.57;99976.97;4447268;32;33114;-77
2022/03/03 04:27:17;;;;;;;;;;;;;;;0.74;48.59;99977.81;4427378;32;34335;-77
2022/03/03 04:29:45;;;;;;;;;;;;;;;0.75;48.48;99976.91;4438206;32;36110;-77
2022/03/03 04:32:12;;;;;;;;;;;;;;;0.80;48.13;99972.28;4468626;32;35414;-77
2022/03/03 04:34:40;;;;;;;;;;;;;;;0.72;48.19;99970.06;4449316;32;33478;-78
2022/03/03 04:37:08;;;;;;;;;;;;;;;0.77;48.18;99962.78;4455470;32;35351;-76
2022/03/03 04:39:35;;;;;;;;;;;;;;;0.61;48.68;99963.69;4469086;32;36250;-77
2022/03/03 04:42:03;;;;;;;;;;;;;;;0.71;48.32;99959.66;4465368;32;34493;-77
2022/03/03 04:44:31;;;;;;;;;;;;;;;0.66;48.50;99962.50;4446789;32;31606;-77
2022/03/03 04:46:59;;;;;;;;;;;;;;;0.73;48.20;99960.41;4463197;32;34723;-77
2022/03/03 04:49:27;;;;;;;;;;;;;;;0.75;48.02;99972.50;4452392;32;36124;-77
2022/03/03 04:51:54;;;;;;;;;;;;;;;0.74;48.01;99962.97;4442111;32;35500;-77
2022/03/03 04:54:21;;;;;;;;;;;;;;;0.76;47.88;99971.59;4439312;32;33306;-76
2022/03/03 04:56:51;;;;;;;;;;;;;;;0.44;48.69;99975.00;4452265;32;34148;-77
2022/03/03 04:59:19;;;;;;;;;;;;;;;0.31;49.27;99979.16;4452127;32;34278;-77
2022/03/03 05:01:46;;;;;;;;;;;;;;;0.41;49.26;99971.69;4426859;32;35544;-77
2022/03/03 05:04:14;;;;;;;;;;;;;;;0.52;49.34;99965.00;4443533;32;34242;-77
2022/03/03 05:06:45;;;;;;;;;;;;;;;0.39;49.56;99961.28;4421200;32;33192;-77
2022/03/03 05:09:12;;;;;;;;;;;;;;;0.34;49.76;99967.69;4416084;32;35951;-77
2022/03/03 05:11:41;;;;;;;;;;;;;;;0.37;49.81;99960.53;4411822;32;35350;-77
2022/03/03 05:14:08;;;;;;;;;;;;;;;0.37;49.77;99968.38;4433665;32;33268;-77
2022/03/03 05:16:36;;;;;;;;;;;;;;;0.39;49.71;99958.69;4438947;32;32396;-77
2022/03/03 05:19:05;;;;;;;;;;;;;;;0.44;49.51;99964.53;4425432;32;35600;-76
2022/03/03 05:21:33;;;;;;;;;;;;;;;0.46;49.21;99972.28;4438505;32;34494;-76
2022/03/03 05:24:02;;;;;;;;;;;;;;;0.39;49.55;99961.28;4438045;32;33461;-76
2022/03/03 05:26:30;;;;;;;;;;;;;;;0.40;49.72;99964.78;4439170;32;35700;-77
2022/03/03 05:28:58;;;;;;;;;;;;;;;0.35;49.47;99969.38;4438847;32;34587;-76
2022/03/03 05:31:26;;;;;;;;;;;;;;;0.23;49.91;99968.25;4442174;32;33952;-76
2022/03/03 05:33:54;;;;;;;;;;;;;;;0.37;49.59;99970.13;4439527;32;33495;-76
2022/03/03 05:36:21;;;;;;;;;;;;;;;0.40;49.70;99973.44;4448564;32;34110;-76
2022/03/03 05:38:49;;;;;;;;;;;;;;;0.42;49.60;99973.38;4447717;32;36196;-76
2022/03/03 05:41:17;;;;;;;;;;;;;;;0.45;49.67;99970.59;4459003;32;34871;-77
2022/03/03 05:43:45;;;;;;;;;;;;;;;0.46;49.15;99967.06;4439093;32;33351;-78
2022/03/03 05:46:14;;;;;;;;;;;;;;;0.31;50.00;99968.69;4441955;32;34573;-76
2022/03/03 05:48:42;;;;;;;;;;;;;;;0.39;49.80;99963.91;4441215;32;35959;-76
2022/03/03 05:51:10;;;;;;;;;;;;;;;0.43;49.61;99972.47;4435412;32;35230;-76
2022/03/03 05:53:38;;;;;;;;;;;;;;;0.48;49.64;99958.22;4453719;32;34108;-76
2022/03/03 05:56:06;;;;;;;;;;;;;;;0.39;49.94;99963.91;4450896;32;34091;-76
2022/03/03 05:58:36;;;;;;;;;;;;;;;0.43;49.99;99967.22;4450699;32;34665;-76
2022/03/03 06:01:04;;;;;;;;;;;;;;;0.38;50.31;99966.62;4450262;32;34660;-79
2022/03/03 06:03:33;;;;;;;;;;;;;;;0.55;49.97;99969.22;4427110;32;32385;-78
2022/03/03 06:06:05;;;;;;;;;;;;;;;0.29;51.15;99970.53;4437801;32;34266;-77
2022/03/03 06:08:36;;;;;;;;;;;;;;;0.17;51.40;99973.75;4453519;32;35308;-77
2022/03/03 06:11:04;;;;;;;;;;;;;;;0.67;50.16;99979.06;4440607;32;33859;-79
2022/03/03 06:13:35;;;;;;;;;;;;;;;0.70;49.62;99984.16;4453754;32;32176;-78
2022/03/03 06:16:04;;;;;;;;;;;;;;;0.85;49.28;99980.75;4453241;32;34826;-78
2022/03/03 06:21:23;;;;;;;;;;;;;;;0.90;49.52;99976.97;4283689;26;19995;-80
2022/03/03 06:23:52;;;;;;;;;;;;;;;1.02;49.14;99970.22;4395368;32;33483;-81
2022/03/03 06:26:19;;;;;;;;;;;;;;;0.97;49.65;99967.00;4394754;32;32226;-82
2022/03/03 06:28:47;;;;;;;;;;;;;;;1.16;49.15;99967.72;4394424;32;33323;-82
2022/03/03 06:31:15;;;;;;;;;;;;;;;1.33;49.01;99975.53;4395159;32;34287;-82
2022/03/03 06:33:43;;;;;;;;;;;;;;;1.43;48.64;99967.06;4383221;32;32584;-82
2022/03/03 06:36:11;;;;;;;;;;;;;;;1.44;48.79;99963.53;4396545;32;33787;-82
2022/03/03 06:38:39;;;;;;;;;;;;;;;1.59;48.43;99973.16;4421649;32;36003;-82
2022/03/03 06:41:07;;;;;;;;;;;;;;;1.44;49.30;99978.41;4380595;32;34490;-82
2022/03/03 06:43:35;;;;;;;;;;;;;;;1.63;48.65;99979.09;4381605;32;33374;-82
2022/03/03 06:46:04;;;;;;;;;;;;;;;1.67;48.59;99989.34;4381395;32;33225;-83
2022/03/03 06:48:31;;;;;;;;;;;;;;;1.46;49.88;99982.66;4395100;32;35034;-83
2022/03/03 06:50:58;;;;;;;;;;;;;;;1.75;49.23;99986.28;4409209;32;35381;-83
2022/03/03 06:53:28;;;;;;;;;;;;;;;2.07;48.08;99986.16;4397309;32;33362;-83
2022/03/03 06:56:07;;;;;;;;;;;;;;;2.18;48.13;99985.56;4409693;32;33795;-83
2022/03/03 06:58:35;;;;;;;;;;;;;;;2.11;48.51;99978.97;4394019;32;34570;-82
2022/03/03 07:01:04;;;;;;;;;;;;;;;2.28;48.35;99982.34;4385837;32;33666;-88
2022/03/03 07:03:32;;;;;;;;;;;;;;;1.95;49.52;99989.50;4396982;32;31877;-83
2022/03/03 07:06:01;;;;;;;;;;;;;;;2.29;48.86;99994.53;4409710;32;34282;-83
2022/03/03 07:08:28;;;;;;;;;;;;;;;2.41;48.65;99982.44;4396850;32;35299;-83
2022/03/03 07:10:56;;;;;;;;;;;;;;;2.70;48.23;99987.69;4396609;32;33127;-83
2022/03/03 07:13:23;;;;;;;;;;;;;;;2.85;47.32;99978.91;4397159;32;31215;-82
2022/03/03 07:15:52;;;;;;;;;;;;;;;2.87;47.60;99979.66;4397572;32;33327;-82
2022/03/03 07:18:22;;;;;;;;;;;;;;;3.03;47.22;99983.91;4384689;32;33541;-86
2022/03/03 07:21:02;;;;;;;;;;;;;;;3.26;46.71;99990.38;4423022;32;34589;-81
2022/03/03 07:23:39;;;;;;;;;;;;;;;3.43;46.45;99985.75;4384521;32;31850;-82
2022/03/03 07:26:08;;;;;;;;;;;;;;;3.55;46.29;99981.53;4422061;32;33115;-81
2022/03/03 07:28:38;;;;;;;;;;;;;;;3.71;45.38;99979.63;4396848;32;33562;-81
2022/03/03 07:31:07;;;;;;;;;;;;;;;3.58;45.53;99983.97;4384292;32;32982;-81
2022/03/03 07:33:41;;;;;;;;;;;;;;;3.85;45.34;99983.06;4396961;32;32799;-82
2022/03/03 07:36:10;;;;;;;;;;;;;;;3.87;45.51;99982.97;4409037;32;33104;-81
2022/03/03 07:38:38;;;;;;;;;;;;;;;3.87;45.62;99982.97;4409754;32;36089;-82
2022/03/03 07:41:07;;;;;;;;;;;;;;;4.05;44.75;99976.53;4402714;32;32994;-83
2022/03/03 07:43:35;;;;;;;;;;;;;;;4.23;44.31;99973.53;4394006;32;31779;-81
2022/03/03 07:46:03;;;;;;;;;;;;;;;4.39;44.33;99966.31;4384250;32;33257;-81
2022/03/03 07:48:31;;;;;;;;;;;;;;;4.34;44.37;99972.84;4394365;32;35154;-80
2022/03/03 07:50:58;;;;;;;;;;;;;;;4.65;43.86;99954.03;4383515;32;33054;-80
2022/03/03 07:53:26;;;;;;;;;;;;;;;4.83;43.52;99956.25;4407069;32;32891;-79
2022/03/03 07:55:56;;;;;;;;;;;;;;;4.72;43.44;99950.88;4406524;32;34195;-80
2022/03/03 07:58:26;;;;;;;;;;;;;;;4.96;43.62;99958.91;4396265;32;33465;-79
2022/03/03 08:00:57;;;;;;;;;;;;;;;4.95;43.53;99944.88;4396577;32;34562;-80
2022/03/03 08:03:25;;;;;;;;;;;;;;;5.06;43.71;99952.91;4381845;32;33876;-80
2022/03/03 08:05:57;;;;;;;;;;;;;;;5.16;43.56;99953.09;4407885;32;34863;-80
2022/03/03 08:08:26;;;;;;;;;;;;;;;5.23;43.62;99947.28;4406297;32;36207;-80
2022/03/03 08:11:11;;;;;;;;;;;;;;;5.48;43.01;99942.81;4382384;32;34495;-80
2022/03/03 08:13:39;;;;;;;;;;;;;;;5.63;42.56;99943.50;4421099;32;31602;-81
2022/03/03 08:16:06;;;;;;;;;;;;;;;5.59;43.41;99945.53;4421692;32;33676;-80
2022/03/03 08:18:37;;;;;;;;;;;;;;;6.14;42.31;99945.06;4396479;32;34795;-79
2022/03/03 08:21:06;;;;;;;;;;;;;;;6.12;41.85;99945.16;4406127;32;34398;-87
2022/03/03 08:23:35;;;;;;;;;;;;;;;5.96;42.52;99944.59;4394113;32;33820;-83
2022/03/03 08:26:03;;;;;;;;;;;;;;;6.34;42.17;99936.50;4383922;32;33676;-83
2022/03/03 08:28:32;;;;;;;;;;;;;;;6.00;42.58;99934.66;4421293;32;34426;-81
2022/03/03 08:31:00;;;;;;;;;;;;;;;6.40;41.85;99933.37;4422799;32;35575;-81
2022/03/03 08:33:27;;;;;;;;;;;;;;;6.44;41.56;99927.75;4409311;32;34201;-81
2022/03/03 08:35:56;;;;;;;;;;;;;;;6.62;40.76;99926.34;4407356;32;34930;-82
2022/03/03 08:38:36;;;;;;;;;;;;;;;6.96;40.45;99936.06;4422732;32;35658;-81
2022/03/03 08:41:04;;;;;;;;;;;;;;;6.99;40.16;99940.28;4408772;32;34673;-83
2022/03/03 08:43:32;;;;;;;;;;;;;;;6.85;40.31;99930.75;4381793;32;32130;-82
2022/03/03 08:46:04;;;;;;;;;;;;;;;6.98;39.60;99925.37;4380376;32;33997;-83
2022/03/03 08:48:32;;;;;;;;;;;;;;;6.52;40.91;99920.09;4408662;32;35708;-83
2022/03/03 08:51:00;;;;;;;;;;;;;;;6.96;39.28;99922.81;4394008;32;34027;-83
2022/03/03 08:53:28;;;;;;;;;;;;;;;7.07;38.88;99920.19;4382306;32;33196;-83
2022/03/03 08:55:58;;;;;;;;;;;;;;;7.19;39.23;99913.94;4408299;32;34211;-84
2022/03/03 08:58:26;;;;;;;;;;;;;;;7.21;38.87;99913.81;4409439;32;35909;-83
2022/03/03 09:00:53;;;;;;;;;;;;;;;7.35;38.45;99908.28;4396023;32;34285;-84
2022/03/03 09:03:22;;;;;;;;;;;;;;;7.35;37.50;99916.22;4395996;32;33280;-84
2022/03/03 09:05:50;;;;;;;;;;;;;;;7.35;37.72;99909.13;4396474;32;34744;-84
2022/03/03 09:08:17;;;;;;;;;;;;;;;7.47;38.65;99916.06;4396177;32;35654;-83
2022/03/03 09:10:45;;;;;;;;;;;;;;;7.20;39.58;99915.63;4395286;32;33714;-84
2022/03/03 09:13:13;;;;;;;;;;;;;;;6.83;38.89;99916.81;4383205;32;32502;-83
2022/03/03 09:15:41;;;;;;;;;;;;;;;7.69;37.10;99910.78;4393327;32;33508;-86
2022/03/03 09:18:10;;;;;;;;;;;;;;;7.48;37.38;99916.94;4405876;32;34964;-84
2022/03/03 09:20:37;;;;;;;;;;;;;;;7.29;38.26;99916.72;4380715;32;32972;-85
2022/03/03 09:23:05;;;;;;;;;;;;;;;7.43;37.67;99919.94;4395874;32;32971;-83
2022/03/03 09:25:36;;;;;;;;;;;;;;;6.83;39.27;99929.19;4408333;32;33771;-84
2022/03/03 09:28:04;;;;;;;;;;;;;;;7.05;38.96;99932.69;4408349;32;35261;-83
2022/03/03 09:30:32;;;;;;;;;;;;;;;7.38;39.50;99927.38;4408679;32;34662;-82
2022/03/03 09:33:00;;;;;;;;;;;;;;;7.46;37.97;99924.16;4396003;32;33968;-85
2022/03/03 09:35:30;;;;;;;;;;;;;;;8.02;36.69;99915.13;4396112;32;34818;-85
2022/03/03 09:37:59;;;;;;;;;;;;;;;7.88;37.09;99918.06;4396563;32;35246;-84
2022/03/03 09:40:27;;;;;;;;;;;;;;;7.89;38.10;99917.09;4395079;32;33142;-84
2022/03/03 09:42:56;;;;;;;;;;;;;;;7.84;37.99;99919.28;4408525;32;33248;-84
2022/03/03 09:45:24;;;;;;;;;;;;;;;7.99;38.19;99910.06;4420407;32;32514;-83
2022/03/03 09:47:54;;;;;;;;;;;;;;;7.97;38.07;99914.66;4383206;32;35060;-83
2022/03/03 09:50:22;;;;;;;;;;;;;;;8.11;38.07;99903.78;4395820;32;34756;-83
2022/03/03 09:52:49;;;;;;;;;;;;;;;8.85;37.03;99904.50;4378483;32;31817;-83
2022/03/03 09:55:17;;;;;;;;;;;;;;;8.85;37.55;99901.84;4385982;32;31982;-84
2022/03/03 09:57:45;;;;;;;;;;;;;;;9.04;36.53;99900.16;4408174;32;35017;-84
2022/03/03 10:00:12;;;;;;;;;;;;;;;9.24;35.08;99895.75;4395422;32;35345;-84
2022/03/03 10:03:14;;;;;;;;;;;;;;;9.52;35.69;99897.66;4408155;32;33469;-84
2022/03/03 10:05:47;;;;;;;;;;;;;;;9.65;34.99;99898.28;4390923;32;33890;-83
2022/03/03 10:08:19;;;;;;;;;;;;;;;9.47;34.38;99897.25;4409885;32;34945;-83
2022/03/03 10:10:48;;;;;;;;;;;;;;;8.93;35.50;99892.28;4396939;32;32913;-84
2022/03/03 10:13:17;;;;;;;;;;;;;;;9.36;34.28;99884.91;4409926;32;34145;-83
2022/03/03 10:15:45;;;;;;;;;;;;;;;9.60;34.48;99888.06;4394476;32;33406;-83
2022/03/03 10:18:16;;;;;;;;;;;;;;;9.67;34.62;99897.19;4382693;32;34440;-83
2022/03/03 10:20:51;;;;;;;;;;;;;;;10.14;33.08;99901.75;4392767;32;34758;-82
2022/03/03 10:23:23;;;;;;;;;;;;;;;10.32;32.85;99884.13;4382370;32;31793;-83
2022/03/03 10:25:52;;;;;;;;;;;;;;;10.15;32.59;99884.84;4381610;32;34754;-83
2022/03/03 10:28:23;;;;;;;;;;;;;;;10.11;32.58;99882.59;4394919;32;34918;-83
2022/03/03 10:31:10;;;;;;;;;;;;;;;9.79;34.03;99879.28;4369394;32;33076;-83
2022/03/03 10:33:41;;;;;;;;;;;;;;;9.64;33.80;99880.66;4368329;32;32395;-84
2022/03/03 10:36:32;;;;;;;;;;;;;;;9.55;34.21;99879.66;4408202;32;34585;-83
2022/03/03 10:39:02;;;;;;;;;;;;;;;9.70;34.29;99880.09;4379355;32;34954;-83
2022/03/03 10:41:30;;;;;;;;;;;;;;;9.90;33.16;99874.69;4379416;32;32500;-85
2022/03/03 10:44:00;;;;;;;;;;;;;;;9.88;33.79;99875.81;4390751;32;32849;-83
2022/03/03 10:46:32;;;;;;;;;;;;;;;9.87;34.61;99871.47;4395555;32;32164;-84
2022/03/03 10:49:14;;;;;;;;;;;;;;;9.86;33.44;99868.00;4382060;32;35195;-84
2022/03/03 10:51:42;;;;;;;;;;;;;;;10.08;33.53;99866.91;4382150;32;34633;-85
2022/03/03 10:54:11;;;;;;;;;;;;;;;9.99;32.76;99860.59;4381767;32;33781;-84
2022/03/03 10:57:11;;;;;;;;;;;;;;;10.16;33.18;99851.94;4397960;32;33999;-84
2022/03/03 10:59:41;;;;;;;;;;;;;;;10.18;32.81;99849.16;4378429;32;34759;-84
2022/03/03 11:02:10;;;;;;;;;;;;;;;10.20;32.54;99853.34;4365918;32;33254;-82
2022/03/03 11:04:40;;;;;;;;;;;;;;;9.74;33.79;99849.66;4368751;32;32121;-83
2022/03/03 11:07:09;;;;;;;;;;;;;;;10.18;32.85;99849.16;4382533;32;33794;-82
2022/03/03 11:09:38;;;;;;;;;;;;;;;10.52;32.34;99843.25;4368953;32;34297;-82
2022/03/03 11:12:06;;;;;;;;;;;;;;;10.50;32.08;99844.34;4382211;32;34263;-81
2022/03/03 11:14:34;;;;;;;;;;;;;;;10.82;33.78;99834.19;4382224;32;32438;-81
2022/03/03 11:17:20;;;;;;;;;;;;;;;10.93;32.88;99831.38;4372145;32;32564;-83
2022/03/03 11:19:50;;;;;;;;;;;;;;;11.17;31.11;99829.00;4372179;32;35518;-83
2022/03/03 11:22:18;;;;;;;;;;;;;;;11.69;30.00;99813.19;4396577;32;33760;-82
2022/03/03 11:24:46;;;;;;;;;;;;;;;10.97;31.24;99835.41;4396066;32;32876;-81
2022/03/03 11:27:13;;;;;;;;;;;;;;;10.72;31.71;99825.41;4396065;32;34323;-81
2022/03/03 11:29:40;;;;;;;;;;;;;;;10.84;31.83;99821.59;4409465;32;35689;-82
2022/03/03 11:32:09;;;;;;;;;;;;;;;11.18;30.95;99807.56;4409227;32;32985;-82
2022/03/03 11:34:43;;;;;;;;;;;;;;;11.54;30.84;99809.34;4397695;32;32528;-82
2022/03/03 11:37:19;;;;;;;;;;;;;;;11.66;30.43;99810.81;4397311;32;34673;-81
2022/03/03 11:39:46;;;;;;;;;;;;;;;11.48;30.73;99807.25;4396858;32;34859;-83
2022/03/03 11:42:27;;;;;;;;;;;;;;;11.58;31.17;99803.59;4406537;32;35368;-83
2022/03/03 11:44:55;;;;;;;;;;;;;;;11.72;31.32;99789.72;4396672;32;32949;-82
2022/03/03 11:47:23;;;;;;;;;;;;;;;12.24;30.42;99794.22;4396702;32;33854;-83
2022/03/03 11:50:03;;;;;;;;;;;;;;;12.55;30.67;99771.41;4423033;32;35168;-81
2022/03/03 11:52:31;;;;;;;;;;;;;;;12.67;30.21;99785.34;4409270;32;34718;-81
2022/03/03 11:55:00;;;;;;;;;;;;;;;12.94;29.58;99767.31;4408891;32;33278;-82
2022/03/03 11:57:27;;;;;;;;;;;;;;;12.68;29.48;99777.16;4379030;32;34022;-81
2022/03/03 12:00:00;;;;;;;;;;;;;;;12.34;29.88;99784.28;4381788;32;35760;-82
2022/03/03 12:02:28;;;;;;;;;;;;;;;12.19;29.00;99774.34;4387009;32;33127;-82
2022/03/03 12:05:15;;;;;;;;;;;;;;;12.17;29.18;99774.47;4384409;32;31885;-82
2022/03/03 12:07:43;;;;;;;;;;;;;;;11.96;29.03;99770.47;4393723;32;33415;-82
2022/03/03 12:10:14;;;;;;;;;;;;;;;11.45;29.94;99765.78;4380768;32;34331;-82
2022/03/03 12:12:41;;;;;;;;;;;;;;;11.50;30.33;99773.31;4381381;32;34632;-82
2022/03/03 12:15:09;;;;;;;;;;;;;;;11.22;30.76;99771.66;4381800;32;33029;-82
2022/03/03 12:17:42;;;;;;;;;;;;;;;11.26;30.28;99769.53;4384475;32;32808;-81
2022/03/03 12:20:24;;;;;;;;;;;;;;;11.33;30.52;99755.47;4406354;32;33986;-83
2022/03/03 12:23:18;;;;;;;;;;;;;;;11.62;30.28;99745.50;4407378;32;34538;-83
2022/03/03 12:25:58;;;;;;;;;;;;;;;12.01;29.07;99750.34;4397078;32;33131;-84
2022/03/03 12:28:45;;;;;;;;;;;;;;;11.68;30.08;99750.22;4422594;32;34211;-84
2022/03/03 12:31:36;;;;;;;;;;;;;;;11.75;29.84;99751.28;4397294;32;35195;-83
2022/03/03 12:34:06;;;;;;;;;;;;;;;11.46;30.01;99750.63;4396440;32;34594;-83
2022/03/03 12:36:35;;;;;;;;;;;;;;;11.75;30.84;99748.63;4409276;32;33848;-84
2022/03/03 12:39:04;;;;;;;;;;;;;;;11.93;29.30;99752.13;4383159;32;33900;-83
2022/03/03 12:41:32;;;;;;;;;;;;;;;11.93;31.72;99744.94;4384042;32;33778;-83
2022/03/03 12:44:05;;;;;;;;;;;;;;;12.32;30.25;99748.94;4384265;32;33350;-84
2022/03/03 12:46:34;;;;;;;;;;;;;;;12.46;29.64;99739.53;4409397;32;32948;-82
2022/03/03 12:49:02;;;;;;;;;;;;;;;12.01;29.76;99744.19;4381813;32;34204;-83
2022/03/03 12:51:32;;;;;;;;;;;;;;;12.61;29.46;99733.44;4394104;32;34171;-83
2022/03/03 12:54:03;;;;;;;;;;;;;;;13.10;29.41;99735.34;4422315;32;34435;-83
2022/03/03 12:56:31;;;;;;;;;;;;;;;14.10;26.60;99733.34;4394846;32;34121;-83
2022/03/03 12:59:07;;;;;;;;;;;;;;;15.37;25.57;99716.94;4370643;32;32807;-83
2022/03/03 13:01:37;;;;;;;;;;;;;;;15.67;25.37;99718.75;4382411;32;35016;-82
2022/03/03 13:04:06;;;;;;;;;;;;;;;16.27;23.60;99716.09;4380985;32;33644;-84
2022/03/03 13:06:34;;;;;;;;;;;;;;;16.77;22.05;99702.81;4402315;32;32246;-84